Time;durP1;ratioP1;P1;durP2;ratioP2;P2;SDS_P1;SDS_P2;PMS_P1;PMS_P2;Temp;Humidity;BMP_temperature;BMP_pressure;BME280_temperature;BME280_humidity;BME280_pressure;Samples;Min_cycle;Max_cycle;Signal;HPM_P1;HPM_P2
2022/10/21 00:01:32;;;;;;;;;28.25;24.00;;;;;16.66;55.95;98970.75;4977076;28;102320;-42
2022/10/21 00:04:01;;;;;;;;;30.25;27.75;;;;;16.64;55.45;98964.72;4966496;28;102601;-42
2022/10/21 00:06:28;;;;;;;;;26.75;24.00;;;;;16.65;54.92;98960.91;4968856;27;104165;-42
2022/10/21 00:08:55;;;;;;;;;30.00;27.25;;;;;16.63;55.64;98963.03;4974558;28;103708;-42
2022/10/21 00:11:22;;;;;;;;;26.25;25.00;;;;;16.62;55.18;98966.81;4970795;28;102473;-42
2022/10/21 00:13:49;;;;;;;;;31.75;27.75;;;;;16.62;55.53;98971.44;4963927;28;103054;-42
2022/10/21 00:16:17;;;;;;;;;27.75;25.50;;;;;16.59;55.86;98970.03;4971678;28;105509;-42
2022/10/21 00:18:45;;;;;;;;;29.75;27.25;;;;;16.60;56.20;98971.69;4966111;28;102834;-42
2022/10/21 00:21:16;;;;;;;;;27.75;26.25;;;;;16.60;55.88;98977.16;4972292;28;102157;-42
2022/10/21 00:23:43;;;;;;;;;30.75;26.00;;;;;16.60;54.90;98965.41;4973743;28;103715;-42
2022/10/21 00:26:11;;;;;;;;;28.00;23.50;;;;;16.59;55.94;98959.09;4972473;28;104359;-42
2022/10/21 00:28:38;;;;;;;;;30.50;25.50;;;;;16.59;55.35;98956.38;4971601;28;102460;-42
2022/10/21 00:31:09;;;;;;;;;23.00;20.75;;;;;16.58;56.02;98957.44;4961597;28;103526;-42
2022/10/21 00:33:36;;;;;;;;;26.50;23.75;;;;;16.58;56.04;98956.59;4960475;28;103600;-42
2022/10/21 00:36:04;;;;;;;;;27.75;25.75;;;;;16.57;55.47;98952.19;4963130;28;104039;-41
2022/10/21 00:38:31;;;;;;;;;28.75;26.00;;;;;16.56;55.55;98956.81;4971831;28;102220;-42
2022/10/21 00:40:59;;;;;;;;;25.50;24.00;;;;;16.56;55.86;98970.47;4971497;27;102521;-42
2022/10/21 00:43:28;;;;;;;;;26.50;23.50;;;;;16.54;55.84;98958.94;4982398;28;102501;-42
2022/10/21 00:46:00;;;;;;;;;25.00;23.75;;;;;16.54;55.70;98967.13;4984583;28;104057;-42
2022/10/21 00:48:35;;;;;;;;;26.50;24.75;;;;;16.52;55.83;98961.06;4961450;28;102473;-42
2022/10/21 00:51:05;;;;;;;;;31.00;26.50;;;;;16.52;55.77;98966.53;4967549;28;102806;-42
2022/10/21 00:53:33;;;;;;;;;27.75;24.75;;;;;16.50;55.62;98966.75;4975440;28;102567;-42
2022/10/21 00:56:03;;;;;;;;;24.50;23.25;;;;;16.50;55.46;98971.38;4977240;28;103826;-42
2022/10/21 00:58:30;;;;;;;;;29.25;25.00;;;;;16.48;56.22;98959.84;4976744;28;102683;-42
2022/10/21 01:00:58;;;;;;;;;26.00;24.50;;;;;16.46;55.90;98949.16;4984407;27;102494;-42
2022/10/21 01:03:25;;;;;;;;;26.00;24.50;;;;;16.45;56.11;98952.13;4969464;28;102403;-42
2022/10/21 01:05:53;;;;;;;;;25.75;24.00;;;;;16.45;55.56;98960.31;4969732;28;103890;-42
2022/10/21 01:08:30;;;;;;;;;21.75;19.50;;;;;16.46;56.16;98956.53;4964676;28;104597;-42
2022/10/21 01:11:30;;;;;;;;;29.50;25.00;;;;;16.45;56.02;98952.13;4968204;28;102357;-42
2022/10/21 01:14:29;;;;;;;;;24.50;23.25;;;;;16.44;55.42;98955.91;4969437;28;103042;-42
2022/10/21 01:17:19;;;;;;;;;28.00;25.25;;;;;16.43;55.52;98949.63;4977127;28;107921;-42
2022/10/21 01:20:39;;;;;;;;;23.00;22.00;;;;;16.42;55.57;98942.50;4968062;28;102241;-42
2022/10/21 01:23:31;;;;;;;;;26.25;24.50;;;;;16.41;55.85;98935.38;4962405;28;102544;-42
2022/10/21 01:26:24;;;;;;;;;28.25;24.00;;;;;16.40;55.37;98938.31;4961277;28;102645;-42
2022/10/21 01:29:28;;;;;;;;;25.75;24.50;;;;;16.39;55.66;98937.50;4969005;28;104200;-42
2022/10/21 01:32:16;;;;;;;;;22.75;22.50;;;;;16.38;55.66;98935.84;4965362;28;102297;-42
2022/10/21 01:34:55;;;;;;;;;26.50;24.00;;;;;16.38;56.09;98918.63;4984176;28;103115;-42
2022/10/21 01:37:30;;;;;;;;;24.75;22.00;;;;;16.37;56.05;98923.25;4973590;28;102499;-42
2022/10/21 01:40:08;;;;;;;;;26.25;24.00;;;;;16.36;55.86;98924.31;4975835;28;104060;-42
2022/10/21 01:42:39;;;;;;;;;25.00;23.00;;;;;16.35;56.23;98909.00;4981101;28;102590;-42
2022/10/21 01:45:09;;;;;;;;;27.00;25.00;;;;;16.34;55.56;98909.25;4961384;28;102570;-42
2022/10/21 01:47:47;;;;;;;;;25.25;23.75;;;;;16.33;55.87;98910.31;4964314;28;102318;-42
2022/10/21 01:50:16;;;;;;;;;24.50;22.75;;;;;16.32;56.29;98903.16;4974433;28;109587;-42
2022/10/21 01:52:44;;;;;;;;;30.50;25.00;;;;;16.32;56.51;98898.56;4955466;28;103010;-42
2022/10/21 01:55:13;;;;;;;;;23.50;23.00;;;;;16.32;55.94;98897.72;4958898;28;102595;-42
2022/10/21 01:57:42;;;;;;;;;25.00;22.50;;;;;16.32;56.54;98892.25;4983156;28;102687;-42
2022/10/21 02:00:09;;;;;;;;;0.00;0.00;;;;;16.30;56.00;98895.19;4979151;27;108859;-42
2022/10/21 02:02:38;;;;;;;;;27.00;24.75;;;;;16.30;56.01;98889.75;4966405;28;102466;-42
2022/10/21 02:05:09;;;;;;;;;24.75;23.25;;;;;16.30;56.74;98888.94;4976071;28;103879;-42
2022/10/21 02:07:36;;;;;;;;;25.75;24.00;;;;;16.29;55.60;98892.72;4956678;28;102971;-42
2022/10/21 02:10:04;;;;;;;;;21.75;20.25;;;;;16.29;55.70;98903.66;4974379;28;103963;-42
2022/10/21 02:12:31;;;;;;;;;33.50;26.75;;;;;16.27;56.26;98906.59;4972455;28;102661;-42
2022/10/21 02:14:58;;;;;;;;;25.00;24.75;;;;;16.27;56.24;98903.88;4957407;28;102223;-42
2022/10/21 02:17:25;;;;;;;;;23.75;21.50;;;;;16.26;56.19;98909.53;4959961;28;102511;-42
2022/10/21 02:19:53;;;;;;;;;26.00;23.25;;;;;16.26;56.38;98901.34;4966781;28;103445;-42
2022/10/21 02:22:20;;;;;;;;;23.50;21.25;;;;;16.25;55.95;98875.16;4963536;28;102154;-42
2022/10/21 02:24:51;;;;;;;;;28.00;23.75;;;;;16.25;56.37;98886.91;4963187;28;102567;-42
2022/10/21 02:27:18;;;;;;;;;23.00;20.00;;;;;16.24;56.22;98895.31;4977546;28;103015;-42
2022/10/21 02:29:46;;;;;;;;;24.00;22.50;;;;;16.23;56.24;98890.91;4969791;28;104072;-42
2022/10/21 02:32:50;;;;;;;;;25.75;22.00;;;;;16.20;56.09;98883.19;4982043;28;102434;-42
2022/10/21 02:35:39;;;;;;;;;20.75;17.25;;;;;16.20;56.08;98894.09;4965906;28;102627;-42
2022/10/21 02:38:13;;;;;;;;;25.00;22.25;;;;;16.20;56.17;98889.50;4968723;28;102865;-42
2022/10/21 02:41:04;;;;;;;;;25.00;22.00;;;;;16.19;56.27;98876.91;4976077;28;109046;-42
2022/10/21 02:43:37;;;;;;;;;23.75;19.75;;;;;16.18;56.30;98872.50;4961510;28;103353;-42
2022/10/21 02:46:06;;;;;;;;;25.25;23.00;;;;;16.17;56.34;98878.19;4992564;27;103541;-42
2022/10/21 02:48:34;;;;;;;;;22.75;20.00;;;;;16.17;55.88;98886.38;4976344;28;102623;-42
2022/10/21 02:51:05;;;;;;;;;24.25;20.50;;;;;16.17;55.99;98889.09;4985756;27;104125;-42
2022/10/21 02:53:32;;;;;;;;;25.50;23.50;;;;;16.17;56.58;98883.63;4973754;28;103205;-42
2022/10/21 02:55:59;;;;;;;;;22.50;22.50;;;;;16.16;56.76;98876.53;4971097;28;103889;-42
2022/10/21 02:58:26;;;;;;;;;22.50;19.25;;;;;16.17;56.82;98867.25;4975327;28;102536;-42
2022/10/21 03:00:53;;;;;;;;;23.00;20.75;;;;;16.15;56.20;98858.50;4971694;28;104055;-42
2022/10/21 03:03:20;;;;;;;;;23.50;21.75;;;;;16.14;56.26;98865.00;4969700;28;102137;-42
2022/10/21 03:05:47;;;;;;;;;21.25;18.75;;;;;16.15;56.50;98861.22;4981075;28;102564;-42
2022/10/21 03:08:14;;;;;;;;;22.50;19.50;;;;;16.13;56.48;98855.16;4965870;28;102560;-42
2022/10/21 03:10:41;;;;;;;;;24.00;22.00;;;;;16.13;56.06;98852.41;4969174;28;104062;-42
2022/10/21 03:13:08;;;;;;;;;21.75;21.25;;;;;16.12;56.37;98856.25;4957789;28;102461;-42
2022/10/21 03:15:35;;;;;;;;;23.75;22.00;;;;;16.11;56.11;98863.59;4969408;28;102496;-42
2022/10/21 03:18:02;;;;;;;;;21.50;20.00;;;;;16.10;56.12;98852.88;4973314;28;103014;-42
2022/10/21 03:20:29;;;;;;;;;26.75;24.50;;;;;16.09;56.27;98846.59;4977352;28;104113;-42
2022/10/21 03:22:56;;;;;;;;;22.00;21.25;;;;;16.09;56.43;98841.16;4965501;28;102635;-42
2022/10/21 03:25:23;;;;;;;;;26.25;22.75;;;;;16.08;56.19;98837.59;4981370;28;102384;-42
2022/10/21 03:27:50;;;;;;;;;22.25;20.75;;;;;16.08;56.71;98851.22;4965073;28;102586;-42
2022/10/21 03:30:17;;;;;;;;;24.50;23.00;;;;;16.07;56.72;98835.91;4964909;28;103922;-42
2022/10/21 03:32:44;;;;;;;;;24.75;21.50;;;;;16.06;56.25;98837.00;4970979;28;102646;-42
2022/10/21 03:35:11;;;;;;;;;22.75;21.00;;;;;16.06;56.05;98834.28;4966939;28;102803;-42
2022/10/21 03:37:38;;;;;;;;;24.00;20.75;;;;;16.05;56.36;98831.75;4984708;27;102663;-42
2022/10/21 03:40:05;;;;;;;;;21.75;18.50;;;;;16.04;56.21;98822.75;4972566;28;104058;-42
2022/10/21 03:42:37;;;;;;;;;25.50;22.25;;;;;16.04;56.18;98825.47;4968825;28;102772;-42
2022/10/21 03:45:05;;;;;;;;;19.25;17.25;;;;;16.04;56.00;98830.94;4974625;28;102882;-42
2022/10/21 03:47:32;;;;;;;;;20.50;19.00;;;;;16.03;56.17;98829.25;4972810;27;102343;-42
2022/10/21 03:49:59;;;;;;;;;21.00;20.25;;;;;16.03;56.27;98837.44;4962307;28;104065;-42
2022/10/21 03:52:26;;;;;;;;;20.75;18.75;;;;;16.02;56.49;98826.78;4973554;28;102486;-42
2022/10/21 03:54:53;;;;;;;;;24.75;19.75;;;;;16.01;56.21;98825.94;4959181;28;102415;-42
2022/10/21 03:57:20;;;;;;;;;24.00;20.75;;;;;16.00;56.50;98818.81;4968719;28;103720;-42
2022/10/21 03:59:48;;;;;;;;;21.25;18.75;;;;;16.00;56.70;98823.44;4969206;27;104246;-42
2022/10/21 04:02:16;;;;;;;;;24.50;21.25;;;;;15.98;56.75;98826.41;4975086;28;102674;-42
2022/10/21 04:04:43;;;;;;;;;24.00;21.00;;;;;15.96;56.71;98820.34;4979081;28;102509;-42
2022/10/21 04:07:10;;;;;;;;;21.75;20.00;;;;;15.95;56.72;98821.41;4976641;28;103454;-42
2022/10/21 04:09:37;;;;;;;;;20.75;19.25;;;;;15.91;56.23;98812.00;4962818;28;109689;-42
2022/10/21 04:12:04;;;;;;;;;19.75;19.50;;;;;15.94;56.58;98808.81;4964584;28;102445;-42
2022/10/21 04:14:31;;;;;;;;;24.25;21.00;;;;;15.93;56.45;98812.63;4966097;28;102507;-42
2022/10/21 04:16:58;;;;;;;;;24.00;19.75;;;;;15.93;56.52;98804.44;4971103;28;102593;-42
2022/10/21 04:19:33;;;;;;;;;23.00;21.00;;;;;15.92;55.77;98800.06;4971022;28;104095;-42
2022/10/21 04:21:59;;;;;;;;;18.75;17.00;;;;;15.92;55.92;98800.06;4974152;28;102445;-42
2022/10/21 04:24:26;;;;;;;;;21.75;19.50;;;;;15.92;56.13;98808.22;4974945;28;104002;-42
2022/10/21 04:26:53;;;;;;;;;18.75;17.75;;;;;15.92;56.45;98812.84;4967937;28;102543;-42
2022/10/21 04:29:20;;;;;;;;;19.50;19.50;;;;;15.91;56.54;98803.84;4980255;28;104237;-42
2022/10/21 04:31:47;;;;;;;;;23.75;20.25;;;;;15.90;55.96;98796.69;4976315;28;102060;-42
2022/10/21 04:34:15;;;;;;;;;21.75;19.50;;;;;15.90;56.01;98791.25;4972699;28;102315;-42
2022/10/21 04:36:41;;;;;;;;;22.25;21.00;;;;;15.90;55.89;98810.34;4983262;28;102796;-42
2022/10/21 04:39:11;;;;;;;;;22.25;20.00;;;;;15.89;56.03;98805.97;4989273;28;109219;-42
2022/10/21 04:41:38;;;;;;;;;20.25;18.25;;;;;15.88;56.38;98804.31;4987285;28;102519;-42
2022/10/21 04:44:08;;;;;;;;;22.75;20.25;;;;;15.87;56.28;98793.63;4976726;28;102430;-42
2022/10/21 04:46:35;;;;;;;;;19.25;18.50;;;;;15.87;56.70;98797.19;4986206;28;102105;-42
2022/10/21 04:49:02;;;;;;;;;22.00;18.50;;;;;15.86;55.96;98806.41;4990490;28;104030;-42
2022/10/21 04:51:28;;;;;;;;;24.25;22.00;;;;;15.84;56.06;98797.66;4981616;28;102206;-42
2022/10/21 04:54:00;;;;;;;;;25.25;23.50;;;;;15.83;55.94;98801.44;4976877;28;102495;-42
2022/10/21 04:56:27;;;;;;;;;22.25;17.00;;;;;15.82;56.38;98797.03;4976742;28;102496;-42
2022/10/21 04:58:54;;;;;;;;;21.75;21.00;;;;;15.81;56.30;98789.91;4984124;28;104242;-42
2022/10/21 05:01:21;;;;;;;;;21.75;19.75;;;;;15.82;56.01;98791.56;4984392;27;102528;-42
2022/10/21 05:03:48;;;;;;;;;21.75;18.50;;;;;15.82;56.52;98794.31;4991505;28;104726;-42
2022/10/21 05:06:15;;;;;;;;;24.00;19.50;;;;;15.81;56.52;98795.34;4987792;27;103509;-42
2022/10/21 05:08:42;;;;;;;;;17.50;13.50;;;;;15.80;56.59;98799.16;4981590;28;104177;-42
2022/10/21 05:11:09;;;;;;;;;20.50;18.75;;;;;15.80;56.29;98793.72;4982029;28;102400;-42
2022/10/21 05:13:36;;;;;;;;;24.00;21.00;;;;;15.80;56.23;98801.06;4983486;28;102354;-42
2022/10/21 05:16:03;;;;;;;;;18.25;17.00;;;;;15.79;55.62;98794.78;4975727;27;106023;-42
2022/10/21 05:18:30;;;;;;;;;23.50;19.75;;;;;15.78;55.96;98793.09;4986319;28;104050;-42
2022/10/21 05:20:57;;;;;;;;;21.00;18.75;;;;;15.79;56.06;98804.84;4985363;28;103366;-42
2022/10/21 05:23:25;;;;;;;;;20.25;18.25;;;;;15.78;56.52;98792.25;4976644;27;102173;-42
2022/10/21 05:25:52;;;;;;;;;18.75;18.00;;;;;15.77;56.38;98796.88;4977824;28;102535;-42
2022/10/21 05:28:19;;;;;;;;;21.25;19.50;;;;;15.77;56.42;98796.03;4962487;28;104220;-42
2022/10/21 05:30:46;;;;;;;;;23.25;18.75;;;;;15.77;56.49;98796.03;4977470;28;103325;-42
2022/10/21 05:33:13;;;;;;;;;22.25;21.00;;;;;15.76;56.29;98792.47;4974758;28;102481;-42
2022/10/21 05:35:40;;;;;;;;;22.00;22.00;;;;;15.75;56.31;98803.63;4959557;28;102167;-42
2022/10/21 05:38:07;;;;;;;;;22.25;19.00;;;;;15.74;56.27;98786.44;4966360;28;104038;-42
2022/10/21 05:40:34;;;;;;;;;21.50;17.75;;;;;15.73;56.99;98771.16;4969715;27;102393;-42
2022/10/21 05:43:01;;;;;;;;;21.00;18.50;;;;;15.71;56.08;98759.66;4977286;28;102569;-42
2022/10/21 05:45:28;;;;;;;;;19.25;17.50;;;;;15.71;56.26;98751.47;4982511;28;103665;-42
2022/10/21 05:47:55;;;;;;;;;18.75;17.50;;;;;15.71;56.17;98770.56;4978155;28;104261;-42
2022/10/21 05:50:22;;;;;;;;;20.25;19.00;;;;;15.72;56.67;98793.16;4978066;28;102277;-42
2022/10/21 05:52:49;;;;;;;;;21.00;19.50;;;;;15.71;56.01;98803.28;4978967;28;102209;-42
2022/10/21 05:55:16;;;;;;;;;20.25;20.00;;;;;15.71;56.25;98799.72;4966055;28;102436;-42
2022/10/21 05:57:43;;;;;;;;;22.50;20.50;;;;;15.71;56.87;98786.09;4977432;27;104129;-42
2022/10/21 06:00:13;;;;;;;;;21.25;18.50;;;;;15.71;56.94;98808.72;4986617;27;101998;-42
2022/10/21 06:02:40;;;;;;;;;16.00;15.75;;;;;15.71;56.52;98814.19;4971518;28;102349;-42
2022/10/21 06:05:07;;;;;;;;;25.25;21.75;;;;;15.72;56.63;98812.25;4975365;28;102681;-42
2022/10/21 06:07:34;;;;;;;;;21.75;20.75;;;;;15.71;56.19;98808.72;4984890;28;103711;-42
2022/10/21 06:10:02;;;;;;;;;22.00;21.00;;;;;15.71;56.71;98819.63;4971495;27;102048;-42
2022/10/21 06:12:28;;;;;;;;;21.50;17.50;;;;;15.71;57.10;98814.19;4981865;28;102092;-42
2022/10/21 06:14:55;;;;;;;;;20.25;19.25;;;;;15.69;56.37;98802.66;4981489;27;102555;-42
2022/10/21 06:17:22;;;;;;;;;21.00;19.75;;;;;15.69;56.88;98813.56;4976864;28;103941;-42
2022/10/21 06:19:49;;;;;;;;;20.75;17.75;;;;;15.70;56.65;98817.13;4979036;27;103132;-42
2022/10/21 06:22:16;;;;;;;;;22.25;20.00;;;;;15.68;56.30;98817.34;4976314;28;102340;-45
2022/10/21 06:24:45;;;;;;;;;18.50;17.00;;;;;15.68;56.34;98805.59;4982528;27;103233;-42
2022/10/21 06:27:12;;;;;;;;;22.75;20.50;;;;;15.67;56.28;98802.03;4986439;28;108907;-42
2022/10/21 06:29:39;;;;;;;;;22.50;18.75;;;;;15.68;56.66;98809.16;4990796;28;102456;-42
2022/10/21 06:32:06;;;;;;;;;25.75;20.25;;;;;15.67;56.76;98812.13;4993112;27;102178;-42
2022/10/21 06:34:33;;;;;;;;;24.00;22.00;;;;;15.66;56.13;98819.47;4986622;28;102304;-42
2022/10/21 06:37:00;;;;;;;;;25.50;22.50;;;;;15.67;56.20;98821.13;4982354;28;104266;-42
2022/10/21 06:39:27;;;;;;;;;22.25;18.25;;;;;15.66;56.76;98821.38;4985285;28;102427;-42
2022/10/21 06:41:54;;;;;;;;;23.00;21.25;;;;;15.66;55.99;98833.09;4986317;28;102463;-42
2022/10/21 06:44:21;;;;;;;;;22.00;20.25;;;;;15.66;56.28;98837.72;4977299;28;102363;-42
2022/10/21 06:46:48;;;;;;;;;19.50;18.75;;;;;15.65;56.70;98836.06;4969512;28;104142;-42
2022/10/21 06:49:15;;;;;;;;;23.75;21.00;;;;;15.65;56.21;98836.88;4973824;28;103052;-42
2022/10/21 06:51:42;;;;;;;;;25.75;21.25;;;;;15.66;56.64;98835.84;4978285;27;102650;-42
2022/10/21 06:54:09;;;;;;;;;23.75;20.75;;;;;15.65;56.82;98833.31;4991938;28;102542;-42
2022/10/21 06:56:37;;;;;;;;;24.75;22.50;;;;;15.65;56.22;98825.97;4983931;28;103960;-42
2022/10/21 06:59:04;;;;;;;;;23.00;20.25;;;;;15.64;56.98;98821.59;4986738;27;102209;-42
2022/10/21 07:01:35;;;;;;;;;22.00;19.25;;;;;15.64;56.66;98813.41;4976793;27;102485;-42
2022/10/21 07:04:22;;;;;;;;;21.25;19.50;;;;;15.63;56.08;98801.66;4967284;28;103349;-42
2022/10/21 07:06:49;;;;;;;;;17.50;17.25;;;;;15.64;56.66;98805.22;4972769;28;104170;-42
2022/10/21 07:09:16;;;;;;;;;21.25;19.25;;;;;15.63;56.35;98798.09;4986016;28;102463;-42
2022/10/21 07:11:43;;;;;;;;;26.50;22.75;;;;;15.63;56.42;98795.38;4967158;28;102577;-42
2022/10/21 07:14:13;;;;;;;;;22.50;21.00;;;;;15.64;56.84;98788.88;4980351;28;102297;-42
2022/10/21 07:16:40;;;;;;;;;27.75;24.00;;;;;15.62;56.69;98778.19;4979539;27;104073;-42
2022/10/21 07:19:08;;;;;;;;;24.75;22.00;;;;;15.62;56.64;98783.63;4985399;28;102206;-42
2022/10/21 07:21:35;;;;;;;;;22.50;21.00;;;;;15.62;56.83;98791.81;4980632;28;102435;-42
2022/10/21 07:24:02;;;;;;;;;20.75;20.00;;;;;15.63;56.22;98792.66;4986077;28;102374;-42
2022/10/21 07:26:30;;;;;;;;;21.25;20.75;;;;;15.64;57.01;98788.88;4957636;28;103990;-42
2022/10/21 07:28:59;;;;;;;;;25.50;20.00;;;;;15.64;56.30;98780.69;4973153;28;102675;-42
2022/10/21 07:31:26;;;;;;;;;23.50;21.00;;;;;15.64;56.65;98775.25;4979255;28;102204;-42
2022/10/21 07:33:53;;;;;;;;;23.00;20.00;;;;;15.66;56.45;98773.13;4988624;28;102366;-42
2022/10/21 07:36:29;;;;;;;;;23.75;22.75;;;;;15.67;56.63;98771.25;4980835;28;104279;-42
2022/10/21 07:39:01;;;;;;;;;19.00;17.25;;;;;15.66;56.25;98764.97;4970611;28;108215;-42
2022/10/21 07:41:30;;;;;;;;;21.75;19.25;;;;;15.68;56.53;98759.25;4980241;28;102375;-42
2022/10/21 07:43:57;;;;;;;;;21.25;19.00;;;;;15.69;56.02;98750.84;4996816;28;102490;-42
2022/10/21 07:46:25;;;;;;;;;23.00;20.75;;;;;15.69;56.72;98748.13;4985831;27;104260;-42
2022/10/21 07:48:52;;;;;;;;;22.50;20.50;;;;;15.69;56.43;98744.56;4977563;27;102221;-42
2022/10/21 07:51:20;;;;;;;;;18.50;18.25;;;;;15.69;56.65;98734.50;4973930;28;102203;-42
2022/10/21 07:53:55;;;;;;;;;26.25;23.25;;;;;15.69;56.90;98739.97;4968673;28;102275;-42
2022/10/21 07:56:23;;;;;;;;;23.00;20.50;;;;;15.70;56.83;98735.34;4978951;28;104103;-42
2022/10/21 07:58:51;;;;;;;;;20.50;19.00;;;;;15.70;56.55;98747.06;4980419;28;102396;-42
2022/10/21 08:01:18;;;;;;;;;22.75;19.75;;;;;15.70;56.89;98736.19;4984943;28;102355;-41
2022/10/21 08:03:45;;;;;;;;;24.50;23.25;;;;;15.70;56.76;98729.88;4985139;28;102204;-42
2022/10/21 08:06:13;;;;;;;;;26.25;22.25;;;;;15.69;56.98;98712.69;4979318;28;108943;-42
2022/10/21 08:08:40;;;;;;;;;23.00;20.75;;;;;15.70;56.95;98708.06;4984825;27;102339;-42
2022/10/21 08:11:07;;;;;;;;;9.75;9.50;;;;;15.71;56.75;98710.59;4970416;28;102351;-42
2022/10/21 08:13:34;;;;;;;;;19.50;19.50;;;;;15.70;55.79;98708.91;4986422;27;102674;-42
2022/10/21 08:16:03;;;;;;;;;25.00;23.00;;;;;15.70;56.42;98698.00;4985445;28;104136;-42
2022/10/21 08:18:30;;;;;;;;;24.25;18.75;;;;;15.71;55.75;98696.13;4978729;27;102422;-42
2022/10/21 08:20:57;;;;;;;;;26.75;21.25;;;;;15.72;55.82;98690.41;4996917;27;102173;-42
2022/10/21 08:23:25;;;;;;;;;20.00;18.00;;;;;15.73;55.93;98696.69;4988973;28;102216;-42
2022/10/21 08:25:56;;;;;;;;;24.50;20.75;;;;;15.74;55.81;98692.91;4983304;28;104174;-42
2022/10/21 08:28:24;;;;;;;;;20.75;18.50;;;;;15.74;56.32;98685.56;4976211;28;102071;-42
2022/10/21 08:30:51;;;;;;;;;24.25;21.50;;;;;15.75;56.31;98676.34;4991526;28;102330;-42
2022/10/21 08:33:18;;;;;;;;;23.00;19.25;;;;;15.76;56.04;98669.78;4980009;28;102181;-43
2022/10/21 08:35:45;;;;;;;;;25.75;21.50;;;;;15.76;56.67;98667.06;4984280;28;104053;-43
2022/10/21 08:38:12;;;;;;;;;21.75;20.25;;;;;15.78;56.29;98672.31;4988977;28;102873;-43
2022/10/21 08:40:43;;;;;;;;;19.00;18.50;;;;;15.77;56.57;98663.28;4981194;27;102483;-43
2022/10/21 08:43:33;;;;;;;;;24.00;19.25;;;;;15.79;56.58;98663.06;4986274;28;102291;-43
2022/10/21 08:46:03;;;;;;;;;20.50;19.00;;;;;15.81;56.58;98667.22;4979064;28;108969;-43
2022/10/21 08:48:42;;;;;;;;;21.25;17.00;;;;;15.81;56.00;98650.00;4972950;28;102577;-43
2022/10/21 08:51:27;;;;;;;;;25.00;20.50;;;;;15.82;56.46;98652.53;4971132;28;102451;-43
2022/10/21 08:53:55;;;;;;;;;19.25;15.50;;;;;15.83;56.17;98642.44;4966802;28;102189;-43
2022/10/21 08:56:22;;;;;;;;;19.50;17.50;;;;;15.83;56.60;98653.34;4979145;28;104693;-43
2022/10/21 08:58:50;;;;;;;;;22.50;20.00;;;;;15.83;56.55;98643.28;4963680;28;102280;-43
2022/10/21 09:01:22;;;;;;;;;19.25;19.25;;;;;15.84;55.74;98644.94;4980467;27;102379;-43
2022/10/21 09:04:04;;;;;;;;;11.50;11.00;;;;;15.84;55.66;98634.03;4974799;28;102457;-43
2022/10/21 09:06:34;;;;;;;;;19.00;18.50;;;;;15.84;56.40;98634.03;4988817;28;104090;-43
2022/10/21 09:09:06;;;;;;;;;23.75;21.00;;;;;15.86;55.94;98633.78;4968535;28;102309;-43
2022/10/21 09:11:48;;;;;;;;;24.00;22.25;;;;;15.86;55.36;98631.91;4973489;28;102647;-43
2022/10/21 09:14:18;;;;;;;;;21.25;19.50;;;;;15.88;55.79;98632.50;4990372;27;102315;-43
2022/10/21 09:17:23;;;;;;;;;21.25;20.00;;;;;15.88;55.83;98624.31;4983247;28;109726;-43
2022/10/21 09:20:15;;;;;;;;;23.75;20.50;;;;;15.89;55.87;98615.09;4984793;27;102447;-43
2022/10/21 09:23:14;;;;;;;;;21.25;19.00;;;;;15.90;56.10;98608.53;4985934;28;104389;-43
2022/10/21 09:25:46;;;;;;;;;21.75;19.00;;;;;15.90;55.60;98611.28;4978679;28;102390;-43
2022/10/21 09:28:14;;;;;;;;;18.25;16.00;;;;;15.90;56.04;98608.53;4979913;27;108988;-43
2022/10/21 09:30:42;;;;;;;;;22.00;20.00;;;;;15.90;56.42;98605.81;4984680;28;102532;-43
2022/10/21 09:33:14;;;;;;;;;17.50;15.75;;;;;15.92;56.29;98598.25;4967795;28;102193;-43
2022/10/21 09:35:45;;;;;;;;;19.00;16.75;;;;;15.91;56.25;98601.19;4988136;28;102611;-43
2022/10/21 09:38:27;;;;;;;;;24.00;21.50;;;;;15.91;56.56;98599.31;4980570;27;107729;-43
2022/10/21 09:41:00;;;;;;;;;20.00;17.25;;;;;15.91;55.81;98596.56;4981772;28;102196;-43
2022/10/21 09:43:27;;;;;;;;;19.00;17.75;;;;;15.91;55.90;98596.56;4983721;28;102347;-43
2022/10/21 09:45:54;;;;;;;;;23.00;19.75;;;;;15.90;55.76;98586.72;4981454;28;102528;-43
2022/10/21 09:48:31;;;;;;;;;19.00;18.75;;;;;15.91;55.82;98590.28;4973423;28;104051;-43
2022/10/21 09:51:27;;;;;;;;;21.00;19.00;;;;;15.88;56.01;98577.13;4960016;28;102336;-43
2022/10/21 09:54:01;;;;;;;;;16.50;15.50;;;;;15.88;55.64;98563.50;4982289;28;102421;-43
2022/10/21 09:56:58;;;;;;;;;20.50;18.00;;;;;15.88;55.46;98563.50;4959708;28;102590;-43
2022/10/21 09:59:25;;;;;;;;;19.75;17.50;;;;;15.89;55.76;98560.56;4966364;28;111890;-43
2022/10/21 10:02:05;;;;;;;;;19.50;16.00;;;;;15.90;55.89;98558.63;4985667;27;102269;-43
2022/10/21 10:04:33;;;;;;;;;18.50;17.75;;;;;15.91;55.72;98565.75;4994663;28;102559;-43
2022/10/21 10:07:02;;;;;;;;;16.00;15.50;;;;;15.91;55.53;98558.41;4985552;28;111562;-43
2022/10/21 10:09:30;;;;;;;;;23.00;19.00;;;;;15.92;55.64;98559.22;4973020;27;104231;-43
2022/10/21 10:12:01;;;;;;;;;19.75;15.75;;;;;15.92;55.77;98562.78;4982538;28;102535;-43
2022/10/21 10:14:31;;;;;;;;;18.50;17.00;;;;;15.93;55.46;98548.09;4979745;28;102158;-43
2022/10/21 10:17:32;;;;;;;;;21.00;18.75;;;;;15.93;55.26;98545.38;4978304;28;102305;-43
2022/10/21 10:20:06;;;;;;;;;17.00;13.75;;;;;15.93;55.81;98544.53;4956457;28;108829;-43
2022/10/21 10:22:46;;;;;;;;;17.50;16.00;;;;;15.93;55.92;98544.53;4986632;28;102687;-43
2022/10/21 10:25:13;;;;;;;;;19.25;17.50;;;;;15.93;56.09;98550.81;4977561;28;102913;-43
2022/10/21 10:28:07;;;;;;;;;18.50;15.50;;;;;15.94;55.54;98551.66;4989781;28;102746;-43
2022/10/21 10:30:40;;;;;;;;;14.75;9.50;;;;;15.93;56.14;98548.09;4971459;28;108859;-43
2022/10/21 10:33:09;;;;;;;;;18.50;15.25;;;;;15.93;56.19;98544.53;4982240;28;102221;-43
2022/10/21 10:35:36;;;;;;;;;17.50;15.25;;;;;15.93;55.87;98539.91;4968109;28;102432;-43
2022/10/21 10:38:03;;;;;;;;;16.00;15.00;;;;;15.94;56.25;98547.00;4986665;28;102525;-43
2022/10/21 10:40:33;;;;;;;;;19.25;16.75;;;;;15.93;56.20;98533.63;4988556;27;104255;-43
2022/10/21 10:43:03;;;;;;;;;17.25;17.25;;;;;15.93;55.32;98534.47;4990402;28;102331;-43
2022/10/21 10:45:30;;;;;;;;;14.00;13.75;;;;;15.94;55.91;98547.00;4984195;27;102535;-43
2022/10/21 10:47:58;;;;;;;;;16.75;13.75;;;;;15.94;55.71;98543.47;4996272;27;102302;-43
2022/10/21 10:50:46;;;;;;;;;20.50;17.00;;;;;15.95;55.48;98536.94;4960739;28;106329;-43
2022/10/21 10:53:31;;;;;;;;;15.75;15.00;;;;;15.94;55.23;98530.66;4977556;28;103600;-43
2022/10/21 10:55:58;;;;;;;;;13.75;13.25;;;;;15.96;55.82;98530.41;4970889;28;103479;-43
2022/10/21 10:58:26;;;;;;;;;13.75;12.25;;;;;15.96;55.63;98527.69;4980887;28;102408;-43
2022/10/21 11:00:56;;;;;;;;;17.75;16.00;;;;;15.97;55.12;98529.34;4980186;28;104187;-43
2022/10/21 11:03:27;;;;;;;;;16.00;15.50;;;;;15.96;55.07;98512.16;4968863;28;102218;-43
2022/10/21 11:06:00;;;;;;;;;16.50;16.00;;;;;15.98;55.31;98504.59;4971397;28;102578;-43
2022/10/21 11:08:32;;;;;;;;;21.50;17.50;;;;;15.99;55.12;98506.22;4954265;28;102493;-43
2022/10/21 11:11:26;;;;;;;;;18.75;15.25;;;;;15.99;55.65;98494.47;4940432;28;104967;-43
2022/10/21 11:13:53;;;;;;;;;13.00;12.50;;;;;15.99;55.28;98506.22;4956896;28;102738;-43
2022/10/21 11:16:26;;;;;;;;;18.00;17.00;;;;;16.00;55.44;98498.88;4984604;28;102721;-43
2022/10/21 11:19:19;;;;;;;;;19.50;16.00;;;;;16.00;55.11;98496.97;4981823;28;102493;-43
2022/10/21 11:22:05;;;;;;;;;15.50;13.75;;;;;16.00;55.56;98491.53;4985859;28;109072;-43
2022/10/21 11:24:51;;;;;;;;;16.75;16.75;;;;;16.01;55.48;98497.81;4969457;28;102663;-43
2022/10/21 11:27:33;;;;;;;;;16.25;16.25;;;;;16.01;55.64;98492.34;4982998;28;102290;-43